Terminal Aerodrome Forecast
Issued by NWS Des Moines, IA

Home | Current Version | Previous Version | Text Only | Print | Product List | Glossary On
Versions: 1 2 3 4 5 6 7 8 9 10 11 12 13 14 15 16 17 18 19 20 21 22 23 24 25 26 27 28 29 30 31 32 33 34 35 36 37 38 39 40 41 42 43
000
FTUS43 KDMX 241930 AAA
TAFDSM
TAF AMD
KDSM 241930Z 2420/2518 17010KT P6SM VCSH BKN011 OVC025
     FM250100 17008KT P6SM VCSH BKN020
     FM250500 17003KT 3SM RA BR BKN006 OVC012
     FM250900 24007KT 5SM -RA BR BKN009
     FM251200 25012G18KT 5SM -RA BR OVC015
     FM251600 23014G20KT P6SM OVC025=

USA.gov is the U.S. government's official web portal to all federal, state and local government web resources and services.